createdAt,value
2022-11-30T00:01:23.566Z,5.38
2022-11-30T00:03:54.052Z,5.05
2022-11-30T00:06:23.456Z,6.03
2022-11-30T00:08:59.321Z,6.30
2022-11-30T00:11:27.438Z,6.43
2022-11-30T00:13:56.207Z,6.82
2022-11-30T00:16:23.055Z,5.40
2022-11-30T00:18:49.685Z,6.95
2022-11-30T00:21:17.691Z,5.30
2022-11-30T00:23:46.381Z,5.25
2022-11-30T00:26:16.463Z,6.63
2022-11-30T00:28:44.126Z,6.55
2022-11-30T00:31:13.017Z,5.70
2022-11-30T00:33:40.311Z,5.63
2022-11-30T00:36:18.372Z,6.05
2022-11-30T00:38:45.700Z,6.20
2022-11-30T00:41:12.775Z,6.70
2022-11-30T00:43:44.079Z,6.63
2022-11-30T00:46:10.806Z,6.88
2022-11-30T00:48:38.760Z,5.55
2022-11-30T00:51:06.231Z,7.03
2022-11-30T00:53:34.138Z,6.22
2022-11-30T00:56:00.610Z,6.05
2022-11-30T00:58:27.048Z,6.13
2022-11-30T01:00:58.474Z,5.88
2022-11-30T01:03:24.931Z,7.60
2022-11-30T01:05:51.378Z,6.78
2022-11-30T01:08:25.549Z,6.95
2022-11-30T01:11:05.334Z,8.07
2022-11-30T01:13:32.792Z,6.65
2022-11-30T01:15:59.552Z,7.22
2022-11-30T01:18:26.029Z,8.30
2022-11-30T01:20:52.437Z,7.03
2022-11-30T01:23:18.968Z,6.82
2022-11-30T01:25:54.010Z,8.13
2022-11-30T01:28:20.430Z,7.18
2022-11-30T01:30:59.197Z,6.68
2022-11-30T01:33:25.816Z,9.13
2022-11-30T01:36:17.213Z,13.88
2022-11-30T01:38:59.884Z,12.43
2022-11-30T01:41:28.958Z,14.23
2022-11-30T01:44:19.558Z,14.98
2022-11-30T01:46:54.291Z,17.58
2022-11-30T01:49:26.638Z,24.77
2022-11-30T01:52:02.661Z,26.63
2022-11-30T01:54:46.082Z,30.40
2022-11-30T01:57:35.819Z,37.05
2022-11-30T02:00:13.082Z,38.97
2022-11-30T02:02:42.410Z,39.17
2022-11-30T02:05:10.639Z,40.90
2022-11-30T02:07:37.532Z,42.65
2022-11-30T02:10:04.494Z,39.13
2022-11-30T02:12:53.199Z,50.40
2022-11-30T02:15:31.548Z,53.20
2022-11-30T02:18:12.659Z,57.10
2022-11-30T02:20:49.916Z,55.70
2022-11-30T02:24:09.633Z,53.42
2022-11-30T02:26:54.862Z,58.30
2022-11-30T02:29:38.051Z,56.40
2022-11-30T02:32:12.221Z,54.85
2022-11-30T02:34:41.431Z,59.45
2022-11-30T02:37:18.074Z,51.45
2022-11-30T02:39:44.893Z,49.95
2022-11-30T02:42:14.886Z,47.28
2022-11-30T02:44:50.259Z,47.17
2022-11-30T02:47:42.826Z,46.27
2022-11-30T02:50:15.690Z,42.58
2022-11-30T02:52:42.327Z,47.85
2022-11-30T02:55:11.287Z,47.88
2022-11-30T02:57:37.765Z,47.85
2022-11-30T03:00:12.203Z,51.45
2022-11-30T03:02:39.755Z,48.78
2022-11-30T03:05:07.483Z,48.30
2022-11-30T03:07:40.292Z,49.75
2022-11-30T03:10:07.564Z,48.22
2022-11-30T03:12:34.029Z,52.47
2022-11-30T03:15:00.505Z,50.25
2022-11-30T03:17:26.979Z,55.60
2022-11-30T03:20:07.232Z,53.65
2022-11-30T03:22:34.046Z,50.15
2022-11-30T03:25:00.478Z,49.58
2022-11-30T03:27:27.919Z,54.72
2022-11-30T03:29:54.542Z,51.92
2022-11-30T03:32:20.959Z,48.67
2022-11-30T03:34:47.717Z,47.67
2022-11-30T03:37:14.504Z,49.67
2022-11-30T03:39:51.407Z,52.13
2022-11-30T03:42:21.469Z,45.53
2022-11-30T03:44:49.127Z,47.05
2022-11-30T03:47:15.730Z,50.70
2022-11-30T03:49:48.335Z,53.63
2022-11-30T03:52:14.766Z,47.17
2022-11-30T03:54:52.616Z,50.20
2022-11-30T03:57:19.060Z,48.50
2022-11-30T03:59:45.490Z,47.40
2022-11-30T04:02:13.964Z,46.78
2022-11-30T04:04:40.404Z,45.13
2022-11-30T04:07:06.844Z,45.80
2022-11-30T04:09:33.263Z,48.75
2022-11-30T04:11:59.794Z,43.20
2022-11-30T04:14:36.511Z,39.20
2022-11-30T04:17:03.206Z,38.55
2022-11-30T04:19:46.013Z,38.45
2022-11-30T04:22:12.415Z,37.97
2022-11-30T04:24:42.058Z,36.50
2022-11-30T04:27:08.486Z,35.50
2022-11-30T04:29:34.890Z,30.60
2022-11-30T04:32:01.329Z,30.10
2022-11-30T04:34:28.592Z,27.90
2022-11-30T04:37:00.125Z,28.98
2022-11-30T04:39:26.933Z,27.65
2022-11-30T04:41:53.387Z,26.55
2022-11-30T04:44:26.066Z,28.85
2022-11-30T04:46:52.825Z,28.52
2022-11-30T04:49:26.311Z,25.98
2022-11-30T04:51:52.732Z,22.77
2022-11-30T04:54:19.182Z,23.27
2022-11-30T04:56:45.621Z,26.45
2022-11-30T04:59:12.026Z,22.50
2022-11-30T05:01:40.615Z,25.42
2022-11-30T05:04:07.078Z,21.85
2022-11-30T05:06:34.592Z,24.02
2022-11-30T05:09:01.056Z,25.90
2022-11-30T05:11:29.855Z,24.95
2022-11-30T05:14:01.403Z,20.80
2022-11-30T05:16:47.447Z,21.10
2022-11-30T05:19:18.075Z,20.33
2022-11-30T05:22:21.664Z,19.00
2022-11-30T05:24:50.217Z,20.27
2022-11-30T05:27:22.232Z,20.48
2022-11-30T05:29:50.125Z,19.15
2022-11-30T05:32:29.126Z,16.70
2022-11-30T05:34:58.952Z,19.65
2022-11-30T05:37:34.621Z,18.98
2022-11-30T05:40:07.766Z,16.40
2022-11-30T05:42:34.250Z,18.05
2022-11-30T05:45:00.664Z,15.15
2022-11-30T05:47:31.300Z,17.35
2022-11-30T05:49:57.711Z,16.90
2022-11-30T05:52:24.236Z,14.95
2022-11-30T05:54:50.655Z,18.15
2022-11-30T05:57:17.089Z,13.93
2022-11-30T06:00:00.959Z,16.05
2022-11-30T06:02:34.126Z,14.40
2022-11-30T06:05:08.145Z,15.27
2022-11-30T06:07:35.740Z,13.45
2022-11-30T06:10:02.262Z,17.55
2022-11-30T06:12:28.682Z,14.27
2022-11-30T06:14:55.111Z,14.43
2022-11-30T06:17:21.539Z,13.13
2022-11-30T06:19:48.052Z,13.88
2022-11-30T06:22:14.566Z,12.82
2022-11-30T06:24:41.023Z,13.75
2022-11-30T06:27:07.468Z,13.10
2022-11-30T06:29:33.926Z,16.35
2022-11-30T06:32:00.455Z,15.43
2022-11-30T06:34:26.895Z,16.23
2022-11-30T06:36:53.379Z,14.65
2022-11-30T06:39:36.660Z,17.13
2022-11-30T06:42:06.355Z,15.25
2022-11-30T06:44:32.947Z,13.60
2022-11-30T06:46:59.390Z,12.95
2022-11-30T06:49:25.870Z,15.50
2022-11-30T06:52:00.187Z,14.75
2022-11-30T06:54:26.587Z,15.80
2022-11-30T06:56:52.996Z,16.17
2022-11-30T06:59:22.584Z,16.60
2022-11-30T07:01:48.998Z,13.45
2022-11-30T07:04:15.502Z,17.52
2022-11-30T07:06:42.027Z,19.75
2022-11-30T07:09:10.334Z,19.38
2022-11-30T07:11:36.722Z,22.55
2022-11-30T07:14:03.161Z,22.80
2022-11-30T07:16:29.636Z,25.42
2022-11-30T07:18:56.086Z,21.90
2022-11-30T07:21:27.496Z,20.90
2022-11-30T07:24:12.455Z,22.10
2022-11-30T07:26:38.885Z,26.73
2022-11-30T07:29:05.438Z,27.05
2022-11-30T07:31:35.943Z,23.63
2022-11-30T07:34:07.976Z,23.50
2022-11-30T07:36:35.494Z,21.63
2022-11-30T07:39:02.720Z,19.85
2022-11-30T07:41:29.244Z,19.30
2022-11-30T07:43:55.674Z,18.35
2022-11-30T07:46:22.169Z,25.60
2022-11-30T07:48:50.788Z,23.95
2022-11-30T07:51:19.858Z,21.83
2022-11-30T07:53:48.568Z,26.55
2022-11-30T07:56:19.029Z,21.10
2022-11-30T07:58:46.295Z,21.58
2022-11-30T08:01:15.563Z,24.98
2022-11-30T08:03:42.505Z,20.83
2022-11-30T08:06:14.238Z,28.60
2022-11-30T08:08:43.435Z,21.60
2022-11-30T08:11:12.375Z,23.50
2022-11-30T08:13:39.064Z,26.85
2022-11-30T08:16:08.387Z,27.10
2022-11-30T08:18:35.085Z,27.00
2022-11-30T08:21:12.741Z,29.25
2022-11-30T08:23:42.032Z,28.42
2022-11-30T08:26:12.750Z,27.60
2022-11-30T08:28:40.187Z,28.83
2022-11-30T08:31:22.584Z,29.85
2022-11-30T08:33:49.930Z,30.75
2022-11-30T08:36:26.321Z,24.20
2022-11-30T08:38:52.840Z,23.63
2022-11-30T08:41:21.472Z,24.83
2022-11-30T08:43:50.566Z,23.77
2022-11-30T08:49:21.137Z,28.63
2022-11-30T08:57:32.029Z,28.20
2022-11-30T08:59:58.453Z,22.88
2022-11-30T09:02:24.947Z,25.42
2022-11-30T09:04:53.608Z,24.92
2022-11-30T09:07:20.191Z,29.52
2022-11-30T09:09:46.808Z,25.38
2022-11-30T09:12:14.514Z,24.48
2022-11-30T09:14:43.003Z,25.80
2022-11-30T09:17:09.523Z,23.25
2022-11-30T09:19:36.015Z,28.25
2022-11-30T09:22:02.461Z,26.40
2022-11-30T09:24:28.890Z,26.40
2022-11-30T09:26:57.214Z,26.38
2022-11-30T09:29:24.209Z,25.10
2022-11-30T09:31:50.648Z,25.05
2022-11-30T09:34:17.134Z,24.05
2022-11-30T09:36:43.677Z,27.67
2022-11-30T09:39:12.737Z,25.15
2022-11-30T09:42:03.638Z,25.48
2022-11-30T09:44:55.897Z,22.92
2022-11-30T09:47:52.810Z,30.48
2022-11-30T09:50:22.935Z,25.65
2022-11-30T09:52:56.530Z,27.52
2022-11-30T09:55:43.737Z,30.98
2022-11-30T09:58:27.639Z,31.98
2022-11-30T10:00:54.075Z,26.73
2022-11-30T10:03:23.403Z,26.95
2022-11-30T10:06:11.095Z,25.60
2022-11-30T10:08:50.363Z,25.65
2022-11-30T10:11:32.578Z,27.88
2022-11-30T10:14:20.580Z,29.63
2022-11-30T10:17:05.382Z,29.88
2022-11-30T10:19:40.951Z,32.28
2022-11-30T10:22:28.764Z,27.25
2022-11-30T10:25:19.463Z,22.05
2022-11-30T10:27:54.347Z,23.20
2022-11-30T10:30:23.949Z,25.35
2022-11-30T10:32:55.867Z,29.42
2022-11-30T10:35:41.931Z,28.10
2022-11-30T10:38:23.549Z,24.38
2022-11-30T10:41:01.484Z,26.67
2022-11-30T10:44:25.781Z,27.30
2022-11-30T10:47:00.544Z,24.08
2022-11-30T10:49:29.509Z,21.15
2022-11-30T10:52:03.150Z,20.65
2022-11-30T10:54:31.685Z,14.15
2022-11-30T10:57:01.058Z,17.17
2022-11-30T10:59:38.710Z,13.40
2022-11-30T11:02:42.254Z,12.68
2022-11-30T11:05:30.104Z,23.17
2022-11-30T11:08:17.025Z,16.20
2022-11-30T11:10:47.256Z,17.63
2022-11-30T11:13:38.093Z,18.10
2022-11-30T11:16:07.127Z,17.50
2022-11-30T11:18:35.140Z,18.80
2022-11-30T11:21:22.076Z,31.45
2022-11-30T11:23:52.696Z,17.83
2022-11-30T11:26:30.350Z,20.02
2022-11-30T11:29:01.134Z,22.83
2022-11-30T11:31:49.071Z,18.67
2022-11-30T11:34:24.708Z,23.23
2022-11-30T11:37:20.186Z,23.23
2022-11-30T11:40:17.380Z,24.50
2022-11-30T11:42:50.975Z,28.80
2022-11-30T11:45:30.696Z,25.60
2022-11-30T11:48:28.712Z,29.58
2022-11-30T11:51:10.318Z,28.58
2022-11-30T11:53:46.288Z,28.55
2022-11-30T11:56:32.035Z,28.70
2022-11-30T11:59:03.958Z,28.60
2022-11-30T12:01:40.898Z,24.67
2022-11-30T12:04:35.675Z,26.65
2022-11-30T12:07:17.953Z,22.38
2022-11-30T12:09:57.122Z,22.85
2022-11-30T12:12:23.684Z,27.13
2022-11-30T12:14:50.211Z,24.98
2022-11-30T12:17:29.523Z,24.48
2022-11-30T12:20:14.346Z,20.75
2022-11-30T12:22:58.477Z,24.33
2022-11-30T12:25:27.777Z,24.77
2022-11-30T12:28:07.386Z,21.60
2022-11-30T12:30:59.261Z,23.15
2022-11-30T12:34:03.308Z,19.77
2022-11-30T12:36:42.010Z,19.23
2022-11-30T12:39:15.037Z,15.52
2022-11-30T12:41:51.875Z,14.02
2022-11-30T12:44:42.496Z,15.43
2022-11-30T12:47:46.866Z,11.95
2022-11-30T12:50:24.413Z,10.73
2022-11-30T12:53:15.995Z,11.07
2022-11-30T12:55:50.372Z,11.07
2022-11-30T12:59:12.359Z,11.35
2022-11-30T13:02:17.943Z,10.55
2022-11-30T13:04:53.369Z,14.32
2022-11-30T13:07:32.657Z,10.65
2022-11-30T13:10:38.755Z,11.23
2022-11-30T13:13:06.282Z,12.40
2022-11-30T13:15:35.120Z,13.02
2022-11-30T13:18:03.288Z,13.63
2022-11-30T13:20:42.463Z,9.05
2022-11-30T13:23:31.747Z,10.82
2022-11-30T13:26:10.053Z,10.57
2022-11-30T13:28:42.797Z,10.30
2022-11-30T13:31:27.054Z,12.35
2022-11-30T13:34:02.147Z,10.43
2022-11-30T13:36:43.521Z,9.25
2022-11-30T13:39:49.649Z,11.27
2022-11-30T13:42:31.433Z,12.02
2022-11-30T13:45:24.150Z,14.13
2022-11-30T13:47:53.109Z,11.00
2022-11-30T13:50:31.582Z,12.52
2022-11-30T13:53:22.095Z,16.13
2022-11-30T13:55:48.443Z,17.75
2022-11-30T13:58:17.148Z,18.83
2022-11-30T14:01:31.614Z,16.95
2022-11-30T14:04:30.826Z,17.30
2022-11-30T14:07:01.730Z,16.52
2022-11-30T14:09:47.845Z,16.55
2022-11-30T14:12:45.089Z,18.58
2022-11-30T14:15:31.826Z,24.20
2022-11-30T14:23:18.118Z,17.55
2022-11-30T14:26:07.660Z,14.77
2022-11-30T14:29:08.157Z,16.67
2022-11-30T14:31:50.752Z,14.98
2022-11-30T14:34:35.223Z,19.30
2022-11-30T14:37:25.724Z,17.73
2022-11-30T14:40:01.541Z,49.15
2022-11-30T14:42:32.179Z,37.58
2022-11-30T14:45:02.758Z,25.52
2022-11-30T14:47:35.242Z,21.98
2022-11-30T14:50:09.697Z,10.05
2022-11-30T14:52:53.863Z,12.00
2022-11-30T14:55:44.348Z,12.00
2022-11-30T14:58:48.082Z,17.17
2022-11-30T15:01:26.218Z,14.63
2022-11-30T15:04:10.601Z,13.40
2022-11-30T15:06:40.227Z,14.82
2022-11-30T15:09:22.930Z,13.35
2022-11-30T15:11:53.938Z,12.25
2022-11-30T15:14:21.884Z,13.60
2022-11-30T15:16:58.173Z,13.68
2022-11-30T15:22:05.097Z,15.05
2022-11-30T15:24:38.169Z,16.52
2022-11-30T15:27:14.509Z,14.57
2022-11-30T15:32:46.940Z,16.75
2022-11-30T15:35:23.971Z,19.60
2022-11-30T15:37:51.696Z,17.20
2022-11-30T15:40:36.750Z,17.23
2022-11-30T15:43:04.965Z,17.27
2022-11-30T15:45:36.260Z,16.30
2022-11-30T15:48:30.249Z,18.48
2022-11-30T15:51:01.434Z,17.90
2022-11-30T15:53:47.274Z,17.02
2022-11-30T15:56:28.397Z,54.03
2022-11-30T15:59:34.058Z,39.08
2022-11-30T16:02:14.135Z,20.30
2022-11-30T16:05:23.673Z,15.55
2022-11-30T16:08:03.384Z,16.90
2022-11-30T16:10:36.220Z,18.23
2022-11-30T16:13:05.232Z,15.80
2022-11-30T16:15:36.385Z,20.13
2022-11-30T16:18:24.755Z,18.65
2022-11-30T16:20:57.425Z,20.13
2022-11-30T16:23:23.927Z,19.10
2022-11-30T16:25:50.843Z,33.60
2022-11-30T16:28:19.145Z,37.08
2022-11-30T16:30:46.180Z,45.25
2022-11-30T16:33:19.133Z,41.40
2022-11-30T16:35:55.691Z,49.30
2022-11-30T16:38:23.599Z,47.90
2022-11-30T16:40:50.131Z,37.33
2022-11-30T16:43:20.723Z,33.30
2022-11-30T16:45:47.344Z,26.58
2022-11-30T16:48:16.634Z,32.70
2022-11-30T16:50:44.620Z,23.33
2022-11-30T16:53:28.684Z,22.85
2022-11-30T16:55:55.429Z,21.52
2022-11-30T16:58:22.213Z,31.58
2022-11-30T17:00:48.826Z,82.82
2022-11-30T17:03:23.706Z,43.55
2022-11-30T17:06:00.436Z,28.15
2022-11-30T17:08:28.971Z,39.80
2022-11-30T17:10:55.431Z,49.67
2022-11-30T17:13:24.011Z,44.60
2022-11-30T17:15:52.543Z,32.95
2022-11-30T17:18:29.994Z,25.95
2022-11-30T17:20:58.606Z,22.40
2022-11-30T17:23:26.284Z,17.10
2022-11-30T17:25:56.124Z,20.90
2022-11-30T17:28:22.528Z,18.77
2022-11-30T17:31:04.833Z,21.60
2022-11-30T17:33:34.002Z,47.90
2022-11-30T17:36:05.279Z,65.05
2022-11-30T17:38:45.386Z,49.88
2022-11-30T17:41:19.604Z,29.55
2022-11-30T17:43:46.917Z,24.25
2022-11-30T17:46:15.865Z,20.10
2022-11-30T17:48:43.696Z,21.23
2022-11-30T17:51:11.175Z,21.02
2022-11-30T17:53:39.145Z,21.60
2022-11-30T17:56:08.470Z,21.17
2022-11-30T17:58:43.477Z,22.67
2022-11-30T18:01:19.826Z,29.58
2022-11-30T18:03:47.003Z,45.78
2022-11-30T18:06:14.469Z,38.03
2022-11-30T18:08:40.956Z,29.58
2022-11-30T18:11:15.647Z,27.58
2022-11-30T18:13:44.233Z,27.92
2022-11-30T18:16:16.305Z,24.52
2022-11-30T18:18:47.784Z,27.67
2022-11-30T18:21:18.518Z,27.20
2022-11-30T18:23:45.614Z,24.73
2022-11-30T18:26:15.841Z,26.52
2022-11-30T18:28:42.876Z,27.13
2022-11-30T18:31:10.498Z,29.80
2022-11-30T18:33:38.253Z,27.77
2022-11-30T18:36:08.792Z,27.23
2022-11-30T18:38:38.680Z,30.88
2022-11-30T18:41:25.873Z,28.08
2022-11-30T18:43:55.920Z,26.92
2022-11-30T18:46:22.583Z,31.40
2022-11-30T18:48:50.586Z,30.98
2022-11-30T18:51:24.651Z,30.30
2022-11-30T18:54:05.679Z,31.30
2022-11-30T18:56:34.895Z,33.88
2022-11-30T18:59:07.145Z,32.60
2022-11-30T19:01:34.968Z,38.03
2022-11-30T19:04:05.427Z,32.95
2022-11-30T19:06:40.008Z,32.65
2022-11-30T19:09:19.978Z,38.08
2022-11-30T19:11:46.530Z,40.00
2022-11-30T19:14:20.106Z,37.33
2022-11-30T19:16:47.903Z,41.38
2022-11-30T19:19:15.098Z,39.40
2022-11-30T19:21:47.725Z,40.40
2022-11-30T19:24:16.311Z,44.78
2022-11-30T19:26:42.832Z,40.17
2022-11-30T19:29:12.198Z,39.58
2022-11-30T19:31:39.673Z,55.55
2022-11-30T19:34:12.595Z,53.03
2022-11-30T19:36:49.149Z,41.58
2022-11-30T19:39:20.755Z,39.88
2022-11-30T19:41:49.294Z,37.92
2022-11-30T19:44:22.769Z,38.05
2022-11-30T19:46:49.271Z,39.35
2022-11-30T19:49:15.696Z,43.38
2022-11-30T19:52:00.548Z,37.30
2022-11-30T19:54:27.179Z,36.20
2022-11-30T19:56:59.060Z,41.30
2022-11-30T19:59:29.627Z,38.75
2022-11-30T20:02:01.374Z,37.88
2022-11-30T20:04:31.044Z,35.47
2022-11-30T20:07:00.515Z,38.63
2022-11-30T20:09:37.016Z,34.75
2022-11-30T20:12:03.577Z,36.47
2022-11-30T20:14:30.043Z,38.90
2022-11-30T20:16:56.479Z,39.08
2022-11-30T20:19:30.016Z,33.80
2022-11-30T20:22:29.448Z,40.67
2022-11-30T20:24:56.269Z,39.10
2022-11-30T20:27:24.864Z,38.35
2022-11-30T20:29:51.939Z,38.30
2022-11-30T20:32:19.329Z,40.53
2022-11-30T20:34:46.292Z,37.42
2022-11-30T20:37:13.746Z,39.25
2022-11-30T20:39:56.831Z,39.47
2022-11-30T20:42:23.319Z,36.95
2022-11-30T20:44:55.727Z,39.95
2022-11-30T20:47:22.201Z,35.70
2022-11-30T20:49:51.779Z,36.45
2022-11-30T20:52:18.180Z,40.40
2022-11-30T20:54:48.952Z,35.83
2022-11-30T20:57:15.618Z,39.03
2022-11-30T21:00:02.187Z,36.55
2022-11-30T21:02:28.700Z,35.85
2022-11-30T21:04:55.119Z,37.72
2022-11-30T21:07:21.627Z,42.30
2022-11-30T21:09:49.179Z,41.03
2022-11-30T21:12:15.613Z,40.05
2022-11-30T21:14:49.581Z,41.60
2022-11-30T21:17:16.264Z,43.15
2022-11-30T21:19:42.684Z,38.30
2022-11-30T21:22:19.270Z,40.75
2022-11-30T21:24:46.017Z,39.35
2022-11-30T21:27:12.689Z,42.58
2022-11-30T21:29:39.171Z,38.20
2022-11-30T21:32:05.676Z,43.28
2022-11-30T21:34:33.764Z,46.17
2022-11-30T21:37:00.285Z,47.20
2022-11-30T21:39:26.869Z,46.47
2022-11-30T21:41:53.280Z,40.05
2022-11-30T21:44:20.090Z,43.58
2022-11-30T21:46:47.248Z,40.63
2022-11-30T21:49:15.274Z,39.13
2022-11-30T21:51:46.899Z,40.10
2022-11-30T21:54:13.634Z,46.47
2022-11-30T21:56:41.077Z,43.33
2022-11-30T21:59:08.964Z,54.00
2022-11-30T22:01:41.597Z,47.33
2022-11-30T22:04:30.605Z,46.80
2022-11-30T22:06:57.047Z,53.35
2022-11-30T22:09:25.544Z,48.10
2022-11-30T22:11:51.989Z,47.95
2022-11-30T22:14:24.259Z,47.15
2022-11-30T22:16:52.687Z,45.17
2022-11-30T22:19:19.345Z,47.45
2022-11-30T22:21:52.643Z,52.45
2022-11-30T22:24:22.316Z,55.85
2022-11-30T22:26:55.848Z,50.55
2022-11-30T22:29:24.547Z,52.22
2022-11-30T22:31:53.552Z,52.08
2022-11-30T22:34:20.943Z,56.55
2022-11-30T22:36:48.208Z,61.65
2022-11-30T22:39:17.184Z,55.55
2022-11-30T22:41:45.268Z,53.92
2022-11-30T22:44:16.624Z,52.35
2022-11-30T22:46:46.433Z,59.03
2022-11-30T22:49:20.219Z,58.90
2022-11-30T22:52:12.111Z,58.92
2022-11-30T22:54:38.579Z,59.33
2022-11-30T22:57:05.040Z,60.67
2022-11-30T22:59:31.520Z,45.92
2022-11-30T23:01:57.955Z,55.95
2022-11-30T23:04:24.423Z,52.42
2022-11-30T23:06:51.452Z,55.72
2022-11-30T23:09:21.285Z,53.20
2022-11-30T23:11:48.658Z,54.60
2022-11-30T23:14:16.250Z,45.25
2022-11-30T23:16:43.343Z,50.55
2022-11-30T23:19:11.651Z,49.65
2022-11-30T23:21:42.126Z,46.05
2022-11-30T23:24:13.289Z,56.38
2022-11-30T23:26:40.887Z,53.58
2022-11-30T23:29:10.417Z,49.40
2022-11-30T23:31:38.912Z,46.28
2022-11-30T23:34:39.687Z,43.80
2022-11-30T23:37:06.154Z,43.42
2022-11-30T23:39:48.311Z,45.75
2022-11-30T23:42:14.912Z,47.28
2022-11-30T23:44:41.312Z,47.58
2022-11-30T23:47:07.913Z,46.72
2022-11-30T23:49:34.379Z,45.92
2022-11-30T23:52:00.897Z,41.78
2022-11-30T23:54:29.383Z,46.97
2022-11-30T23:56:55.821Z,47.13
2022-11-30T23:59:22.261Z,45.13
